Time;durP1;ratioP1;P1;durP2;ratioP2;P2;SDS_P1;SDS_P2;PMS_P1;PMS_P2;Temp;Humidity;BMP_temperature;BMP_pressure;BME280_temperature;BME280_humidity;BME280_pressure;Samples;Min_cycle;Max_cycle;Signal;HPM_P1;HPM_P2
2023/09/11 00:01:01;;;;;;;28.63;21.65;;;19.00;99.90;;;;;;5012741;28;20026;-92
2023/09/11 00:03:27;;;;;;;26.17;21.02;;;18.90;99.90;;;;;;5013650;28;20037;-91
2023/09/11 00:06:03;;;;;;;33.03;24.90;;;18.90;99.90;;;;;;5012228;28;20391;-89
2023/09/11 00:08:29;;;;;;;37.80;25.15;;;19.00;99.90;;;;;;5012857;28;20029;-91
2023/09/11 00:10:54;;;;;;;32.45;23.80;;;19.00;99.90;;;;;;5014061;28;20032;-91
2023/09/11 00:13:20;;;;;;;35.22;26.25;;;19.00;99.90;;;;;;5014694;28;20069;-93
2023/09/11 00:15:46;;;;;;;28.20;21.33;;;19.00;99.90;;;;;;5013864;28;20508;-92
2023/09/11 00:18:11;;;;;;;29.30;22.45;;;19.00;99.90;;;;;;5013263;28;20028;-92
2023/09/11 00:20:37;;;;;;;25.58;21.73;;;19.00;99.90;;;;;;5014207;28;20433;-91
2023/09/11 00:23:03;;;;;;;23.63;19.70;;;19.00;99.90;;;;;;5012118;28;20438;-93
2023/09/11 00:25:29;;;;;;;25.95;20.10;;;19.00;99.90;;;;;;5011939;28;20026;-91
2023/09/11 00:27:55;;;;;;;28.20;22.17;;;19.00;99.90;;;;;;5013408;28;20029;-90
2023/09/11 00:30:21;;;;;;;43.67;29.75;;;19.00;99.90;;;;;;5012289;28;20056;-90
2023/09/11 00:32:46;;;;;;;49.72;33.83;;;19.00;99.90;;;;;;5012397;28;20030;-93
2023/09/11 00:35:12;;;;;;;49.58;33.00;;;19.00;99.90;;;;;;5012370;28;20559;-89
2023/09/11 00:37:38;;;;;;;40.53;27.27;;;19.00;99.90;;;;;;5012043;28;20061;-89
2023/09/11 00:40:04;;;;;;;32.65;23.52;;;19.10;99.90;;;;;;5012431;28;20022;-91
2023/09/11 00:42:29;;;;;;;33.10;21.25;;;19.10;99.90;;;;;;5011848;28;20482;-91
2023/09/11 00:44:55;;;;;;;24.20;19.42;;;19.00;99.90;;;;;;5012446;28;20029;-91
2023/09/11 00:47:21;;;;;;;24.83;20.60;;;19.00;99.90;;;;;;5014636;28;20030;-93
2023/09/11 00:49:47;;;;;;;24.65;19.63;;;18.80;99.90;;;;;;5017427;28;20045;-91
2023/09/11 00:52:13;;;;;;;24.08;19.17;;;18.70;99.90;;;;;;5024723;28;20049;-90
2023/09/11 00:54:38;;;;;;;27.67;20.83;;;18.70;99.90;;;;;;5014479;28;20030;-91
2023/09/11 00:57:06;;;;;;;27.85;19.67;;;18.60;99.90;;;;;;5014294;28;20428;-91
2023/09/11 00:59:31;;;;;;;46.72;32.28;;;18.60;99.90;;;;;;5030938;28;20056;-93
2023/09/11 01:01:58;;;;;;;49.60;30.38;;;18.70;99.90;;;;;;5012163;28;20022;-92
2023/09/11 01:04:24;;;;;;;46.03;29.55;;;18.70;99.90;;;;;;5011940;28;20066;-91
2023/09/11 01:06:50;;;;;;;44.58;30.20;;;18.80;99.90;;;;;;5013067;28;20116;-91
2023/09/11 01:09:16;;;;;;;38.13;26.23;;;18.80;99.90;;;;;;5014235;28;20107;-90
2023/09/11 01:11:41;;;;;;;40.13;28.92;;;18.80;99.90;;;;;;5015513;28;20054;-91
2023/09/11 01:14:07;;;;;;;49.35;32.45;;;18.80;99.90;;;;;;5015339;28;20204;-94
2023/09/11 01:16:51;;;;;;;49.05;31.63;;;18.90;99.90;;;;;;5015673;28;20038;-90
2023/09/11 01:19:48;;;;;;;44.58;32.00;;;18.90;99.90;;;;;;5015567;28;20084;-94
2023/09/11 01:22:58;;;;;;;46.28;31.65;;;18.90;99.90;;;;;;5015850;28;20052;-92
2023/09/11 01:26:02;;;;;;;46.33;29.48;;;19.00;99.90;;;;;;5013217;28;20037;-90
2023/09/11 01:28:58;;;;;;;43.38;30.23;;;19.00;99.90;;;;;;5013475;28;20501;-92
2023/09/11 01:31:26;;;;;;;43.35;29.83;;;19.00;99.90;;;;;;5012251;28;20034;-91
2023/09/11 01:33:59;;;;;;;47.30;28.27;;;19.00;99.90;;;;;;4995423;28;20470;-91
2023/09/11 01:36:24;;;;;;;41.35;26.30;;;19.00;99.90;;;;;;4996274;28;20089;-92
2023/09/11 01:38:50;;;;;;;30.42;20.55;;;19.10;99.90;;;;;;4996672;28;20104;-92
2023/09/11 01:41:16;;;;;;;33.33;24.67;;;19.10;99.90;;;;;;4979737;28;20057;-92
2023/09/11 01:43:44;;;;;;;33.38;24.67;;;19.10;99.90;;;;;;4979724;28;20486;-92
2023/09/11 01:46:11;;;;;;;43.47;24.50;;;19.00;99.90;;;;;;4987674;28;20030;-92
2023/09/11 01:48:38;;;;;;;35.58;25.25;;;19.00;99.90;;;;;;4979295;28;20551;-92
2023/09/11 01:51:06;;;;;;;39.38;24.83;;;19.00;99.90;;;;;;4996591;28;20022;-93
2023/09/11 01:53:32;;;;;;;32.15;23.88;;;19.00;99.90;;;;;;4996772;28;20030;-94
2023/09/11 01:55:58;;;;;;;35.22;22.63;;;19.00;99.90;;;;;;4997757;28;20042;-90
2023/09/11 01:58:24;;;;;;;28.08;16.55;;;19.00;99.90;;;;;;4979563;28;20023;-90
2023/09/11 02:00:50;;;;;;;34.22;25.52;;;19.00;99.90;;;;;;4979477;28;20037;-93
2023/09/11 02:03:19;;;;;;;38.72;25.05;;;19.00;99.90;;;;;;4979128;28;20031;-91
2023/09/11 02:05:44;;;;;;;37.88;22.83;;;19.00;99.90;;;;;;4978885;28;20030;-92
2023/09/11 02:08:10;;;;;;;27.83;20.45;;;18.90;99.90;;;;;;4995656;28;20588;-91
2023/09/11 02:10:36;;;;;;;33.85;21.48;;;19.00;99.90;;;;;;4995428;28;20042;-91
2023/09/11 02:13:01;;;;;;;30.17;20.70;;;19.00;99.90;;;;;;4979038;28;20053;-91
2023/09/11 02:15:27;;;;;;;30.50;20.13;;;18.90;99.90;;;;;;4979375;28;20053;-92
2023/09/11 02:17:52;;;;;;;22.70;17.10;;;19.00;99.90;;;;;;4982056;28;20050;-93
2023/09/11 02:20:18;;;;;;;26.75;18.27;;;19.00;99.90;;;;;;5006127;28;20030;-92
2023/09/11 02:22:44;;;;;;;26.02;17.17;;;18.90;99.90;;;;;;5004346;28;20145;-89
2023/09/11 02:25:09;;;;;;;29.15;17.42;;;19.00;99.90;;;;;;4987627;28;20018;-94
2023/09/11 02:27:35;;;;;;;24.33;14.40;;;18.90;99.90;;;;;;5001034;28;20697;-92
2023/09/11 02:30:01;;;;;;;29.23;14.68;;;19.00;99.90;;;;;;4995951;28;20025;-91
2023/09/11 02:32:26;;;;;;;25.95;14.85;;;19.00;99.90;;;;;;5016810;28;20111;-91
2023/09/11 02:34:52;;;;;;;18.85;13.55;;;19.00;99.90;;;;;;4999024;28;20544;-92
2023/09/11 02:37:18;;;;;;;19.15;14.65;;;19.00;99.90;;;;;;4999145;28;20057;-92
2023/09/11 02:39:44;;;;;;;24.70;14.50;;;19.00;99.90;;;;;;5015644;28;20018;-91
2023/09/11 02:42:10;;;;;;;18.23;13.13;;;19.00;99.90;;;;;;4990922;28;20044;-92
2023/09/11 02:44:35;;;;;;;26.65;14.30;;;19.00;99.90;;;;;;5020633;28;20025;-91
2023/09/11 02:47:01;;;;;;;27.15;16.30;;;19.00;99.90;;;;;;5003179;28;20033;-90
2023/09/11 02:49:26;;;;;;;24.67;15.32;;;19.10;99.90;;;;;;5018704;28;20049;-88
2023/09/11 02:51:52;;;;;;;15.85;10.80;;;19.10;99.90;;;;;;5002569;28;20468;-91
2023/09/11 02:54:19;;;;;;;19.30;14.52;;;19.10;99.90;;;;;;5014888;28;20022;-92
2023/09/11 02:56:45;;;;;;;20.55;14.45;;;19.10;99.90;;;;;;4997583;28;20488;-92
2023/09/11 02:59:10;;;;;;;21.88;15.10;;;19.10;99.90;;;;;;4997883;28;20030;-92
2023/09/11 03:01:36;;;;;;;23.70;14.88;;;19.10;99.90;;;;;;4997290;28;20069;-92
2023/09/11 03:04:01;;;;;;;17.92;13.43;;;19.10;99.90;;;;;;4997445;28;20060;-93
2023/09/11 03:06:27;;;;;;;20.67;14.88;;;19.10;99.90;;;;;;4997201;28;20117;-93
2023/09/11 03:08:53;;;;;;;19.83;12.20;;;19.20;99.90;;;;;;4997024;28;20029;-93
2023/09/11 03:11:18;;;;;;;17.48;12.27;;;19.20;99.90;;;;;;5013895;28;20030;-92
2023/09/11 03:13:44;;;;;;;20.67;12.45;;;19.20;99.90;;;;;;4997540;28;20124;-92
2023/09/11 03:16:11;;;;;;;17.77;10.77;;;19.10;99.90;;;;;;5013479;28;20153;-89
2023/09/11 03:18:37;;;;;;;15.15;11.52;;;19.10;99.90;;;;;;4997134;28;20030;-91
2023/09/11 03:21:03;;;;;;;16.98;11.13;;;19.10;99.90;;;;;;4996953;28;20034;-91
2023/09/11 03:23:30;;;;;;;20.15;10.98;;;19.10;99.90;;;;;;4996339;28;20045;-93
2023/09/11 03:25:55;;;;;;;20.20;11.57;;;19.10;99.90;;;;;;4996512;28;20026;-91
2023/09/11 03:28:22;;;;;;;16.33;10.85;;;19.10;99.90;;;;;;4995290;28;20116;-89
2023/09/11 03:30:48;;;;;;;14.90;9.88;;;19.10;99.90;;;;;;4977541;28;20035;-91
2023/09/11 03:33:13;;;;;;;15.32;10.02;;;19.00;99.90;;;;;;4977774;28;20073;-92
2023/09/11 03:35:39;;;;;;;16.48;10.18;;;19.10;99.90;;;;;;4994281;28;20085;-93
2023/09/11 03:38:05;;;;;;;13.82;8.52;;;19.00;99.90;;;;;;4977162;28;20453;-90
2023/09/11 03:40:30;;;;;;;13.10;7.57;;;19.00;99.90;;;;;;4977699;28;20080;-92
2023/09/11 03:42:56;;;;;;;13.40;7.60;;;19.00;99.90;;;;;;4993844;28;20030;-92
2023/09/11 03:45:23;;;;;;;14.82;7.35;;;19.00;99.90;;;;;;4994228;28;20105;-93
2023/09/11 03:47:49;;;;;;;13.25;7.40;;;19.00;99.90;;;;;;4977003;28;20030;-90
2023/09/11 03:50:14;;;;;;;9.02;6.47;;;18.90;99.90;;;;;;4993423;28;20030;-93
2023/09/11 03:52:40;;;;;;;8.93;6.95;;;18.90;99.90;;;;;;4976459;28;20034;-94
2023/09/11 03:55:06;;;;;;;9.48;6.25;;;18.90;99.90;;;;;;4977434;28;20045;-89
2023/09/11 03:57:31;;;;;;;10.43;7.22;;;18.80;99.90;;;;;;4994211;28;20027;-90
2023/09/11 03:59:57;;;;;;;8.35;6.25;;;18.80;99.90;;;;;;4979306;28;20022;-92
2023/09/11 04:02:23;;;;;;;9.23;6.95;;;18.80;99.90;;;;;;4978539;28;20032;-91
2023/09/11 04:04:48;;;;;;;9.40;6.75;;;18.80;99.90;;;;;;4993770;28;20030;-92
2023/09/11 04:07:14;;;;;;;9.10;6.57;;;18.70;99.90;;;;;;4976801;28;20536;-91
2023/09/11 04:09:39;;;;;;;10.82;6.53;;;18.70;99.90;;;;;;4994530;28;20031;-93
2023/09/11 04:12:06;;;;;;;12.32;6.80;;;18.70;99.90;;;;;;4994012;28;20033;-92
2023/09/11 04:14:37;;;;;;;9.32;5.90;;;18.70;99.90;;;;;;4993059;28;20065;-92
2023/09/11 04:17:02;;;;;;;;;;;18.60;99.90;;;;;;4977569;28;20117;-92
2023/09/11 04:19:28;;;;;;;13.38;6.95;;;18.60;99.90;;;;;;4992699;28;20373;-90
2023/09/11 04:21:53;;;;;;;11.43;6.28;;;18.60;99.90;;;;;;4976861;28;20030;-91
2023/09/11 04:24:19;;;;;;;11.93;6.97;;;18.60;99.90;;;;;;4994880;28;20046;-92
2023/09/11 04:26:45;;;;;;;11.50;6.65;;;18.50;99.90;;;;;;4994520;28;20138;-91
2023/09/11 04:29:11;;;;;;;16.52;6.60;;;18.50;99.90;;;;;;4984105;28;20462;-90
2023/09/11 04:31:37;;;;;;;12.13;6.90;;;18.50;99.90;;;;;;4995918;28;20038;-91
2023/09/11 04:34:03;;;;;;;12.18;7.00;;;18.50;99.90;;;;;;4995339;28;20117;-92
2023/09/11 04:36:28;;;;;;;15.18;6.82;;;18.40;99.90;;;;;;5005229;28;20128;-92
2023/09/11 04:38:54;;;;;;;11.98;7.05;;;18.50;99.90;;;;;;5013173;28;20022;-91
2023/09/11 04:41:21;;;;;;;14.98;6.78;;;18.50;99.90;;;;;;5005230;28;20522;-91
2023/09/11 04:43:46;;;;;;;11.23;6.45;;;18.50;99.90;;;;;;5012633;28;20072;-91
2023/09/11 04:46:12;;;;;;;12.80;6.65;;;18.50;99.90;;;;;;5014189;28;20033;-91
2023/09/11 04:48:38;;;;;;;14.35;7.13;;;18.50;99.90;;;;;;5014920;28;20053;-89
2023/09/11 04:51:04;;;;;;;9.50;6.55;;;18.40;99.90;;;;;;5017812;28;20078;-90
2023/09/11 04:53:30;;;;;;;11.95;7.28;;;18.40;99.90;;;;;;5016803;28;20150;-89
2023/09/11 04:55:56;;;;;;;9.60;6.40;;;18.40;99.90;;;;;;5011044;28;20038;-92
2023/09/11 04:58:22;;;;;;;12.57;8.10;;;18.40;99.90;;;;;;5012152;28;20083;-90
2023/09/11 05:00:48;;;;;;;12.65;6.60;;;18.40;99.90;;;;;;5012566;28;20057;-91
2023/09/11 05:03:13;;;;;;;9.77;6.18;;;18.30;99.90;;;;;;5012825;28;20050;-92
2023/09/11 05:05:40;;;;;;;14.50;7.40;;;18.30;99.90;;;;;;5012221;28;20408;-92
2023/09/11 05:08:07;;;;;;;12.75;7.03;;;18.30;99.90;;;;;;5011013;28;20052;-88
2023/09/11 05:10:33;;;;;;;8.93;5.78;;;18.30;99.90;;;;;;5014416;28;20503;-91
2023/09/11 05:12:58;;;;;;;11.10;6.93;;;18.30;99.90;;;;;;5031021;28;20053;-90
2023/09/11 05:15:24;;;;;;;12.07;7.50;;;18.20;99.90;;;;;;5015257;28;20068;-89
2023/09/11 05:17:50;;;;;;;13.23;6.70;;;18.20;99.90;;;;;;5017651;28;20492;-91
2023/09/11 05:20:16;;;;;;;11.40;6.90;;;18.20;99.90;;;;;;5037753;28;20045;-90
2023/09/11 05:22:42;;;;;;;11.00;6.93;;;18.20;99.90;;;;;;5038951;28;20051;-89
2023/09/11 05:25:08;;;;;;;14.43;7.47;;;18.20;99.90;;;;;;5020391;28;20029;-90
2023/09/11 05:27:34;;;;;;;20.55;7.72;;;18.20;99.90;;;;;;5019036;28;20021;-88
2023/09/11 05:29:59;;;;;;;9.02;6.10;;;18.20;99.90;;;;;;5010087;28;20037;-90
2023/09/11 05:32:25;;;;;;;18.52;6.40;;;18.20;99.90;;;;;;5012923;28;20048;-90
2023/09/11 05:34:52;;;;;;;10.85;5.40;;;18.10;99.90;;;;;;5011870;28;20034;-90
2023/09/11 05:37:17;;;;;;;8.55;5.47;;;18.10;99.90;;;;;;5000677;28;20022;-90
2023/09/11 05:39:43;;;;;;;13.25;5.97;;;18.10;99.90;;;;;;5015488;28;20101;-91
2023/09/11 05:42:10;;;;;;;11.00;5.82;;;18.10;99.90;;;;;;5021406;28;20456;-91
2023/09/11 05:44:36;;;;;;;9.98;5.63;;;18.00;99.90;;;;;;5005276;28;20025;-89
2023/09/11 05:47:03;;;;;;;12.88;5.75;;;18.00;99.90;;;;;;5003562;28;20026;-90
2023/09/11 05:49:28;;;;;;;9.48;5.28;;;17.90;99.90;;;;;;5022776;28;20017;-92
2023/09/11 05:51:55;;;;;;;9.90;5.35;;;17.90;99.90;;;;;;5006626;28;20113;-89
2023/09/11 05:54:22;;;;;;;10.65;4.97;;;17.90;99.90;;;;;;5005862;28;20032;-91
2023/09/11 05:56:47;;;;;;;9.38;5.03;;;17.90;99.90;;;;;;5021428;28;20038;-94
2023/09/11 05:59:18;;;;;;;11.43;5.18;;;17.80;99.90;;;;;;5008759;28;20022;-93
2023/09/11 06:01:45;;;;;;;;;;;17.80;99.90;;;;;;5026640;28;20017;-93
2023/09/11 06:04:11;;;;;;;7.15;4.28;;;17.80;99.90;;;;;;5024411;28;19913;-91
2023/09/11 06:06:37;;;;;;;13.68;5.28;;;17.80;99.90;;;;;;5023560;28;20483;-92
2023/09/11 06:09:06;;;;;;;11.57;5.15;;;17.70;99.90;;;;;;5026512;28;20473;-93
2023/09/11 06:11:31;;;;;;;11.77;4.90;;;17.70;99.90;;;;;;5025352;28;20047;-92
2023/09/11 06:13:57;;;;;;;8.32;4.32;;;17.70;99.90;;;;;;5025059;28;20025;-91
2023/09/11 06:16:23;;;;;;;8.07;4.72;;;17.70;99.90;;;;;;5027328;28;20065;-92
2023/09/11 06:18:49;;;;;;;8.15;5.10;;;17.70;99.90;;;;;;5024193;28;20042;-93
2023/09/11 06:21:15;;;;;;;12.52;5.35;;;17.70;99.90;;;;;;5007564;28;20031;-92
2023/09/11 06:23:41;;;;;;;9.13;4.88;;;17.80;99.90;;;;;;5012456;28;20061;-91
2023/09/11 06:26:07;;;;;;;9.52;4.88;;;17.80;99.90;;;;;;5009318;28;20055;-90
2023/09/11 06:28:32;;;;;;;12.07;5.32;;;17.70;99.90;;;;;;5034903;28;20025;-92
2023/09/11 06:30:59;;;;;;;6.55;4.70;;;17.80;99.90;;;;;;5013457;28;20435;-91
2023/09/11 06:33:27;;;;;;;7.68;4.53;;;17.80;99.90;;;;;;5005938;28;20021;-91
2023/09/11 06:35:56;;;;;;;8.40;4.78;;;17.80;99.90;;;;;;5022433;28;20065;-94
2023/09/11 06:38:22;;;;;;;11.32;4.78;;;17.80;99.90;;;;;;5024930;28;20127;-93
2023/09/11 06:40:48;;;;;;;9.88;5.07;;;17.90;99.90;;;;;;5020139;28;20014;-94
2023/09/11 06:43:14;;;;;;;9.52;4.53;;;17.90;99.90;;;;;;5024778;28;20060;-95
2023/09/11 06:45:41;;;;;;;10.95;4.70;;;18.00;99.90;;;;;;5037529;28;20026;-89
2023/09/11 06:48:09;;;;;;;8.45;4.65;;;18.10;99.90;;;;;;5010442;28;20025;-92
2023/09/11 06:50:35;;;;;;;9.55;4.03;;;18.10;99.90;;;;;;5005218;28;20472;-93
2023/09/11 06:53:01;;;;;;;5.47;3.53;;;18.10;99.90;;;;;;5019470;28;20030;-92
2023/09/11 06:55:26;;;;;;;6.32;4.10;;;18.10;99.90;;;;;;5021809;28;20041;-92
2023/09/11 06:57:58;;;;;;;6.55;4.03;;;18.20;99.90;;;;;;5049137;28;20020;-90
2023/09/11 07:00:24;;;;;;;6.03;3.78;;;18.20;99.90;;;;;;5029226;28;20026;-90
2023/09/11 07:02:49;;;;;;;7.68;3.75;;;18.30;99.90;;;;;;5037901;28;20030;-93
2023/09/11 07:05:16;;;;;;;10.55;4.45;;;18.30;99.90;;;;;;5033359;28;20037;-91
2023/09/11 07:07:42;;;;;;;16.35;4.10;;;18.40;99.90;;;;;;5016672;28;20044;-91
2023/09/11 07:10:12;;;;;;;9.13;3.67;;;18.40;99.90;;;;;;5020846;28;20465;-91
2023/09/11 07:12:38;;;;;;;7.13;3.83;;;18.40;99.90;;;;;;5009703;28;20053;-91
2023/09/11 07:15:05;;;;;;;7.10;3.55;;;18.40;99.90;;;;;;5016013;28;20033;-89
2023/09/11 07:17:31;;;;;;;9.75;3.90;;;18.40;99.90;;;;;;4997484;28;20513;-92
2023/09/11 07:19:57;;;;;;;5.65;3.65;;;18.40;99.90;;;;;;4997655;28;20041;-92
2023/09/11 07:22:22;;;;;;;7.18;4.22;;;18.40;99.90;;;;;;5016737;28;20021;-91
2023/09/11 07:24:48;;;;;;;7.03;3.67;;;18.40;99.90;;;;;;5033276;28;20032;-90
2023/09/11 07:27:14;;;;;;;7.40;3.88;;;18.50;99.90;;;;;;5016942;28;20055;-88
2023/09/11 07:29:40;;;;;;;6.15;3.55;;;18.50;99.90;;;;;;5026897;28;20038;-90
2023/09/11 07:32:06;;;;;;;9.15;4.30;;;18.50;99.90;;;;;;4996617;28;20030;-89
2023/09/11 07:34:32;;;;;;;7.85;4.00;;;18.60;99.90;;;;;;4996525;28;20030;-92
2023/09/11 07:36:58;;;;;;;5.40;3.88;;;18.60;99.90;;;;;;5013961;28;20096;-87
2023/09/11 07:39:24;;;;;;;11.00;4.03;;;18.60;99.90;;;;;;4996647;28;20037;-90
2023/09/11 07:41:50;;;;;;;10.15;4.25;;;18.70;99.90;;;;;;5014450;28;20018;-90
2023/09/11 07:44:15;;;;;;;6.82;3.63;;;18.70;99.90;;;;;;5013758;28;20237;-88
2023/09/11 07:46:41;;;;;;;7.93;4.47;;;18.70;99.90;;;;;;4996371;28;20033;-91
2023/09/11 07:49:06;;;;;;;6.90;3.92;;;18.70;99.90;;;;;;4997627;28;20471;-92
2023/09/11 07:51:32;;;;;;;6.30;4.35;;;18.70;99.90;;;;;;4998236;28;20022;-90
2023/09/11 07:53:59;;;;;;;6.30;4.35;;;18.70;99.90;;;;;;4997299;28;20397;-90
2023/09/11 07:56:25;;;;;;;8.07;4.20;;;18.70;99.90;;;;;;4996541;28;20037;-90
2023/09/11 07:58:51;;;;;;;7.97;4.53;;;18.70;99.90;;;;;;4993178;28;20049;-89
2023/09/11 08:01:21;;;;;;;7.43;4.60;;;18.70;99.90;;;;;;5015289;28;20477;-89
2023/09/11 08:03:47;;;;;;;;;;;18.80;99.90;;;;;;4995098;28;20029;-90
2023/09/11 08:06:13;;;;;;;8.43;4.53;;;18.80;99.90;;;;;;4995982;28;19938;-91
2023/09/11 08:08:39;;;;;;;11.55;4.90;;;18.80;99.90;;;;;;4997398;28;20384;-91
2023/09/11 08:11:16;;;;;;;10.07;4.70;;;18.80;99.90;;;;;;4997722;28;20030;-89
2023/09/11 08:13:42;;;;;;;15.35;5.28;;;18.90;99.90;;;;;;4995475;28;20022;-90
2023/09/11 08:16:08;;;;;;;10.13;4.60;;;18.90;99.90;;;;;;5000598;28;20042;-90
2023/09/11 08:18:34;;;;;;;9.50;5.90;;;19.00;99.90;;;;;;5006036;28;20018;-88
2023/09/11 08:21:00;;;;;;;9.60;5.18;;;19.00;99.90;;;;;;5018264;28;20083;-93
2023/09/11 08:23:26;;;;;;;8.15;5.03;;;19.10;99.90;;;;;;4999436;28;20026;-92
2023/09/11 08:25:56;;;;;;;11.10;4.95;;;19.10;99.90;;;;;;4998713;28;20504;-89
2023/09/11 08:28:22;;;;;;;7.38;5.18;;;19.20;99.90;;;;;;4996621;28;20022;-89
2023/09/11 08:30:50;;;;;;;8.27;4.95;;;19.20;99.90;;;;;;5013093;28;20160;-90
2023/09/11 08:33:16;;;;;;;11.50;5.10;;;19.30;99.90;;;;;;4998005;28;20083;-90
2023/09/11 08:35:42;;;;;;;11.10;5.65;;;19.30;99.90;;;;;;5000970;28;20448;-91
2023/09/11 08:38:08;;;;;;;10.52;4.85;;;19.40;99.90;;;;;;5013895;28;20045;-89
2023/09/11 08:40:34;;;;;;;9.95;4.88;;;19.50;99.90;;;;;;4990552;28;20157;-90
2023/09/11 08:43:02;;;;;;;9.98;5.07;;;19.60;99.90;;;;;;5012598;28;20080;-89
2023/09/11 08:45:28;;;;;;;9.45;4.93;;;19.60;99.90;;;;;;5009762;28;20480;-91
2023/09/11 08:47:56;;;;;;;10.35;4.65;;;19.70;99.90;;;;;;5011936;28;20037;-92
2023/09/11 08:50:33;;;;;;;7.35;4.35;;;19.70;99.90;;;;;;5012787;28;20036;-92
2023/09/11 08:52:59;;;;;;;7.20;4.43;;;19.80;99.90;;;;;;5012606;28;20030;-91
2023/09/11 08:55:27;;;;;;;8.35;3.85;;;19.80;99.90;;;;;;5012723;28;20065;-92
2023/09/11 08:57:54;;;;;;;6.82;4.25;;;19.90;99.90;;;;;;5027654;28;20092;-90
2023/09/11 09:00:20;;;;;;;7.50;4.10;;;19.90;99.90;;;;;;5011808;28;20122;-92
2023/09/11 09:02:47;;;;;;;8.75;4.28;;;20.00;99.90;;;;;;5015454;28;20027;-92
2023/09/11 09:05:14;;;;;;;9.48;4.28;;;20.00;99.90;;;;;;5028144;28;20029;-93
2023/09/11 09:07:40;;;;;;;13.07;4.45;;;20.10;99.90;;;;;;5012032;28;20026;-92
2023/09/11 09:10:07;;;;;;;12.27;4.25;;;20.20;99.90;;;;;;5011690;28;20116;-91
2023/09/11 09:12:33;;;;;;;8.65;3.90;;;20.30;99.90;;;;;;5012493;28;20029;-91
2023/09/11 09:15:00;;;;;;;6.28;3.47;;;20.30;99.90;;;;;;5011795;28;20041;-92
2023/09/11 09:17:26;;;;;;;6.78;3.72;;;20.40;99.90;;;;;;5011866;28;20033;-93
2023/09/11 09:19:52;;;;;;;7.65;3.72;;;20.40;99.90;;;;;;5011606;28;20026;-89
2023/09/11 09:22:18;;;;;;;8.48;4.20;;;20.40;99.90;;;;;;5011193;28;20462;-92
2023/09/11 09:24:54;;;;;;;9.57;3.78;;;20.50;99.90;;;;;;5011538;28;20022;-94
2023/09/11 09:27:21;;;;;;;11.70;4.40;;;20.60;99.90;;;;;;5011669;28;20037;-93
2023/09/11 09:29:48;;;;;;;6.10;3.83;;;20.80;99.90;;;;;;5012968;28;20057;-92
2023/09/11 09:32:14;;;;;;;12.38;4.57;;;20.90;99.90;;;;;;5017174;28;20064;-92
2023/09/11 09:34:53;;;;;;;7.22;3.97;;;21.00;99.90;;;;;;5016210;28;20088;-93
2023/09/11 09:37:19;;;;;;;6.78;4.18;;;21.10;99.90;;;;;;4997203;28;20116;-91
2023/09/11 09:39:48;;;;;;;33.47;7.03;;;21.10;99.90;;;;;;4983063;28;20049;-93
2023/09/11 09:42:14;;;;;;;36.25;6.65;;;21.10;99.90;;;;;;4980095;28;20053;-94
2023/09/11 09:44:42;;;;;;;103.18;14.38;;;21.10;99.90;;;;;;4988184;28;20021;-94
2023/09/11 09:47:09;;;;;;;11.45;4.15;;;21.10;99.90;;;;;;4981467;28;20026;-95
2023/09/11 09:50:02;;;;;;;11.02;4.95;;;21.10;99.90;;;;;;4980653;28;20026;-93
2023/09/11 09:52:29;;;;;;;10.05;4.38;;;21.20;99.90;;;;;;4997823;28;20045;-95
2023/09/11 09:55:02;;;;;;;13.95;4.57;;;21.20;99.90;;;;;;4981880;28;20050;-95
2023/09/11 09:57:28;;;;;;;10.10;4.82;;;21.30;99.90;;;;;;4985186;28;20112;-92
2023/09/11 09:59:59;;;;;;;8.27;4.05;;;21.30;99.90;;;;;;4993078;28;20106;-94
2023/09/11 10:02:33;;;;;;;9.02;4.20;;;21.40;99.90;;;;;;5001016;28;20061;-95
2023/09/11 10:05:08;;;;;;;9.73;3.97;;;21.40;99.90;;;;;;4981904;28;20026;-89
2023/09/11 10:07:42;;;;;;;6.47;3.85;;;21.50;99.90;;;;;;4979270;28;20023;-92
2023/09/11 10:10:18;;;;;;;7.75;3.20;;;21.50;99.90;;;;;;4980936;28;20121;-93
2023/09/11 10:12:44;;;;;;;6.00;2.88;;;21.50;99.90;;;;;;4983773;28;20029;-95
2023/09/11 10:15:10;;;;;;;7.60;3.50;;;21.50;99.90;;;;;;4986539;28;20030;-96
2023/09/11 10:17:42;;;;;;;11.07;4.15;;;21.40;99.90;;;;;;4988830;28;20077;-93
2023/09/11 10:20:09;;;;;;;6.13;3.55;;;21.30;99.90;;;;;;4991463;28;20042;-95
2023/09/11 10:22:34;;;;;;;6.13;3.38;;;21.30;99.90;;;;;;4989523;28;20098;-96
2023/09/11 10:25:00;;;;;;;7.60;3.67;;;21.30;99.90;;;;;;5003658;28;20062;-93
2023/09/11 10:27:27;;;;;;;9.70;3.55;;;21.30;99.90;;;;;;5007167;28;20038;-96
2023/09/11 10:30:06;;;;;;;8.32;3.30;;;21.30;99.90;;;;;;4983749;28;20022;-95
2023/09/11 10:32:49;;;;;;;5.55;3.20;;;21.40;99.90;;;;;;5006164;28;20026;-95
2023/09/11 10:35:15;;;;;;;8.63;3.28;;;21.50;99.90;;;;;;5011225;28;20074;-95
2023/09/11 10:37:42;;;;;;;8.38;3.58;;;21.80;99.90;;;;;;5008792;28;20034;-94
2023/09/11 10:40:10;;;;;;;11.32;3.78;;;22.00;99.90;;;;;;4994131;28;20022;-94
2023/09/11 10:42:35;;;;;;;8.40;3.45;;;22.10;99.90;;;;;;4989394;28;20034;-94
2023/09/11 10:45:03;;;;;;;8.70;3.45;;;22.00;99.90;;;;;;5006425;28;20032;-93
2023/09/11 10:47:29;;;;;;;9.13;3.38;;;22.00;99.90;;;;;;4988456;28;20466;-96
2023/09/11 10:49:58;;;;;;;10.48;3.53;;;21.90;99.90;;;;;;4986163;28;20027;-95
2023/09/11 10:52:26;;;;;;;11.48;3.22;;;21.90;99.90;;;;;;5000505;28;20065;-96
2023/09/11 10:54:52;;;;;;;4.07;3.03;;;22.00;99.90;;;;;;4984435;28;20110;-94
2023/09/11 10:57:18;;;;;;;6.30;3.33;;;22.00;99.90;;;;;;4981865;28;20030;-95
2023/09/11 10:59:44;;;;;;;8.52;3.50;;;22.00;99.90;;;;;;4981303;28;20030;-94
2023/09/11 11:02:24;;;;;;;12.05;4.45;;;22.00;99.90;;;;;;4980884;28;20540;-95
2023/09/11 11:04:51;;;;;;;7.93;3.72;;;22.10;99.90;;;;;;4983354;28;20093;-95
2023/09/11 11:07:16;;;;;;;8.13;3.58;;;22.00;99.90;;;;;;4979759;28;20093;-95
2023/09/11 11:09:48;;;;;;;11.05;3.78;;;22.00;99.90;;;;;;4996505;28;20022;-93
2023/09/11 11:12:33;;;;;;;8.52;3.28;;;22.00;99.90;;;;;;4977479;28;20109;-92
2023/09/11 11:15:25;;;;;;;5.88;3.40;;;22.10;99.90;;;;;;4988158;28;20026;-90
2023/09/11 11:18:08;;;;;;;5.15;3.25;;;22.20;99.90;;;;;;4984253;28;20097;-92
2023/09/11 11:20:34;;;;;;;9.43;3.15;;;22.50;99.90;;;;;;4989477;28;20118;-92
2023/09/11 11:23:12;;;;;;;5.97;2.63;;;22.60;99.90;;;;;;4987234;28;20033;-88
2023/09/11 11:25:42;;;;;;;3.70;2.85;;;22.50;99.90;;;;;;4984990;28;20023;-93
2023/09/11 11:28:14;;;;;;;6.13;3.25;;;22.40;99.90;;;;;;4970732;28;20470;-93
2023/09/11 11:30:42;;;;;;;5.55;2.72;;;22.30;99.90;;;;;;4977265;28;20632;-95
2023/09/11 11:33:13;;;;;;;10.80;3.30;;;22.30;99.90;;;;;;4964510;28;20046;-92
2023/09/11 11:35:44;;;;;;;9.15;3.22;;;22.30;99.90;;;;;;4980361;28;20502;-95
2023/09/11 11:38:17;;;;;;;8.32;3.10;;;22.40;99.90;;;;;;4988614;28;20046;-91
2023/09/11 11:40:43;;;;;;;9.48;3.40;;;22.50;99.90;;;;;;5005167;28;20026;-96
2023/09/11 11:43:10;;;;;;;7.78;3.05;;;22.60;99.90;;;;;;5005198;28;20033;-95
2023/09/11 11:45:45;;;;;;;6.85;3.10;;;22.70;99.90;;;;;;4987526;28;20171;-96
2023/09/11 11:48:11;;;;;;;6.53;3.00;;;22.70;99.90;;;;;;4983538;28;20034;-93
2023/09/11 11:50:44;;;;;;;6.72;3.28;;;22.70;99.90;;;;;;4981419;28;20023;-94
2023/09/11 11:53:17;;;;;;;5.85;2.63;;;22.70;99.90;;;;;;5003775;28;20038;-96
2023/09/11 11:55:44;;;;;;;5.80;2.60;;;22.70;99.90;;;;;;4991364;28;20025;-94
2023/09/11 11:58:13;;;;;;;5.47;2.53;;;22.50;99.90;;;;;;5010443;28;20462;-96
2023/09/11 12:00:40;;;;;;;8.00;2.70;;;22.50;99.90;;;;;;4989409;28;20049;-91
2023/09/11 12:03:07;;;;;;;6.07;3.08;;;22.50;99.90;;;;;;4986023;28;20278;-94
2023/09/11 12:05:41;;;;;;;6.32;3.05;;;22.60;99.90;;;;;;4983449;28;20481;-93
2023/09/11 12:08:11;;;;;;;8.13;2.72;;;22.70;99.90;;;;;;4987967;28;20096;-93
2023/09/11 12:10:45;;;;;;;7.93;2.70;;;23.00;99.90;;;;;;5004961;28;20113;-93
2023/09/11 12:13:18;;;;;;;3.67;2.30;;;23.20;99.90;;;;;;4985348;28;20026;-93
2023/09/11 12:15:54;;;;;;;7.15;3.13;;;23.20;99.90;;;;;;4988968;28;20034;-94
2023/09/11 12:18:22;;;;;;;4.78;2.90;;;23.30;99.90;;;;;;4984726;28;20065;-95
2023/09/11 12:21:02;;;;;;;6.00;2.53;;;23.50;99.90;;;;;;4999857;28;20023;-94
2023/09/11 12:23:28;;;;;;;3.85;2.70;;;23.90;99.90;;;;;;4984481;28;20153;-95
2023/09/11 12:25:55;;;;;;;6.32;2.80;;;24.20;99.90;;;;;;4995446;28;20038;-94
2023/09/11 12:28:22;;;;;;;4.45;2.20;;;24.40;99.90;;;;;;4981770;28;20045;-92
2023/09/11 12:30:50;;;;;;;10.43;2.40;;;24.40;99.70;;;;;;4979351;28;20048;-92
2023/09/11 12:33:33;;;;;;;100.55;11.00;;;24.50;99.20;;;;;;4977937;28;20049;-93
2023/09/11 12:35:59;;;;;;;39.05;5.60;;;24.60;98.80;;;;;;4991497;28;20049;-93
2023/09/11 12:38:26;;;;;;;92.10;10.15;;;24.70;98.20;;;;;;5015304;28;20026;-92
2023/09/11 12:40:52;;;;;;;9.07;2.47;;;24.90;97.60;;;;;;5018089;28;20689;-96